sensor_id;sensor_type;location;lat;lon;timestamp;temperature;humidity
12557;DHT22;6344;49.932;8.308;2023-02-28T00:00:51;-0.60;63.30
12557;DHT22;6344;49.932;8.308;2023-02-28T00:03:18;-0.60;65.30
12557;DHT22;6344;49.932;8.308;2023-02-28T00:05:44;-0.60;66.20
12557;DHT22;6344;49.932;8.308;2023-02-28T00:08:12;-0.60;66.50
12557;DHT22;6344;49.932;8.308;2023-02-28T00:10:39;-0.50;68.30
12557;DHT22;6344;49.932;8.308;2023-02-28T00:13:06;-0.50;68.80
12557;DHT22;6344;49.932;8.308;2023-02-28T00:15:33;-0.50;69.40
12557;DHT22;6344;49.932;8.308;2023-02-28T00:18:00;-0.50;70.30
12557;DHT22;6344;49.932;8.308;2023-02-28T00:20:27;-0.40;72.10
12557;DHT22;6344;49.932;8.308;2023-02-28T00:22:54;-0.30;72.70
12557;DHT22;6344;49.932;8.308;2023-02-28T00:25:24;-0.20;72.00
12557;DHT22;6344;49.932;8.308;2023-02-28T00:27:51;-0.20;72.10
12557;DHT22;6344;49.932;8.308;2023-02-28T00:30:19;-0.20;72.70
12557;DHT22;6344;49.932;8.308;2023-02-28T00:32:46;-0.20;73.90
12557;DHT22;6344;49.932;8.308;2023-02-28T00:35:13;-0.10;74.40
12557;DHT22;6344;49.932;8.308;2023-02-28T00:37:39;-0.10;74.80
12557;DHT22;6344;49.932;8.308;2023-02-28T00:40:07;-0.20;75.00
12557;DHT22;6344;49.932;8.308;2023-02-28T00:42:36;-0.20;75.70
12557;DHT22;6344;49.932;8.308;2023-02-28T00:45:03;-0.20;76.90
12557;DHT22;6344;49.932;8.308;2023-02-28T00:47:31;-0.30;77.90
12557;DHT22;6344;49.932;8.308;2023-02-28T00:49:57;-0.30;78.80
12557;DHT22;6344;49.932;8.308;2023-02-28T00:52:24;-0.30;79.30
12557;DHT22;6344;49.932;8.308;2023-02-28T00:54:51;-0.30;80.80
12557;DHT22;6344;49.932;8.308;2023-02-28T00:57:17;-0.20;81.60
12557;DHT22;6344;49.932;8.308;2023-02-28T00:59:45;-0.10;82.90
12557;DHT22;6344;49.932;8.308;2023-02-28T01:02:12;-0.10;94.50
12557;DHT22;6344;49.932;8.308;2023-02-28T01:04:39;-0.10;83.70
12557;DHT22;6344;49.932;8.308;2023-02-28T01:07:05;0.00;84.50
12557;DHT22;6344;49.932;8.308;2023-02-28T01:09:32;0.00;85.50
12557;DHT22;6344;49.932;8.308;2023-02-28T01:11:59;0.00;86.30
12557;DHT22;6344;49.932;8.308;2023-02-28T01:14:25;0.00;87.00
12557;DHT22;6344;49.932;8.308;2023-02-28T01:16:53;-0.10;87.70
12557;DHT22;6344;49.932;8.308;2023-02-28T01:19:20;-0.20;88.00
12557;DHT22;6344;49.932;8.308;2023-02-28T01:21:46;-0.30;90.80
12557;DHT22;6344;49.932;8.308;2023-02-28T01:24:13;-0.40;91.40
12557;DHT22;6344;49.932;8.308;2023-02-28T01:26:40;-0.50;93.90
12557;DHT22;6344;49.932;8.308;2023-02-28T01:29:07;-0.60;95.50
12557;DHT22;6344;49.932;8.308;2023-02-28T01:31:33;-0.60;98.50
12557;DHT22;6344;49.932;8.308;2023-02-28T01:34:02;-0.60;99.90
12557;DHT22;6344;49.932;8.308;2023-02-28T01:36:29;-0.60;99.90
12557;DHT22;6344;49.932;8.308;2023-02-28T01:38:56;-0.60;99.90
12557;DHT22;6344;49.932;8.308;2023-02-28T01:41:25;-0.70;99.90
12557;DHT22;6344;49.932;8.308;2023-02-28T01:43:55;-0.80;1.00
12557;DHT22;6344;49.932;8.308;2023-02-28T01:46:22;-0.80;1.00
12557;DHT22;6344;49.932;8.308;2023-02-28T01:48:51;-0.90;1.00
12557;DHT22;6344;49.932;8.308;2023-02-28T01:51:22;-0.90;1.00
12557;DHT22;6344;49.932;8.308;2023-02-28T01:53:56;-1.00;1.00
12557;DHT22;6344;49.932;8.308;2023-02-28T01:56:28;-1.00;1.00
12557;DHT22;6344;49.932;8.308;2023-02-28T01:58:56;-1.20;1.00
12557;DHT22;6344;49.932;8.308;2023-02-28T02:01:24;-1.20;1.00
12557;DHT22;6344;49.932;8.308;2023-02-28T02:03:55;-1.30;1.00
12557;DHT22;6344;49.932;8.308;2023-02-28T02:06:28;-1.40;1.00
12557;DHT22;6344;49.932;8.308;2023-02-28T02:08:55;-1.60;1.00
12557;DHT22;6344;49.932;8.308;2023-02-28T02:11:24;-1.50;1.00
12557;DHT22;6344;49.932;8.308;2023-02-28T02:14:22;-1.60;1.00
12557;DHT22;6344;49.932;8.308;2023-02-28T02:17:01;-1.60;1.00
12557;DHT22;6344;49.932;8.308;2023-02-28T02:20:02;-1.70;1.00
12557;DHT22;6344;49.932;8.308;2023-02-28T02:22:59;-1.80;1.00
12557;DHT22;6344;49.932;8.308;2023-02-28T02:25:35;-1.90;1.00
12557;DHT22;6344;49.932;8.308;2023-02-28T02:28:35;-2.00;1.00
12557;DHT22;6344;49.932;8.308;2023-02-28T02:31:47;-2.40;1.00
12557;DHT22;6344;49.932;8.308;2023-02-28T02:34:38;-2.70;1.00
12557;DHT22;6344;49.932;8.308;2023-02-28T02:37:19;-2.60;21.00
12557;DHT22;6344;49.932;8.308;2023-02-28T02:40:00;-2.60;50.00
12557;DHT22;6344;49.932;8.308;2023-02-28T02:42:34;-2.70;71.40
12557;DHT22;6344;49.932;8.308;2023-02-28T02:45:07;-2.80;99.90
12557;DHT22;6344;49.932;8.308;2023-02-28T02:47:36;-2.80;99.90
12557;DHT22;6344;49.932;8.308;2023-02-28T02:50:07;-2.60;99.90
12557;DHT22;6344;49.932;8.308;2023-02-28T02:52:38;-2.90;99.90
12557;DHT22;6344;49.932;8.308;2023-02-28T02:55:07;-3.10;99.90
12557;DHT22;6344;49.932;8.308;2023-02-28T02:57:40;-3.20;99.90
12557;DHT22;6344;49.932;8.308;2023-02-28T03:06:55;-2.90;99.90
12557;DHT22;6344;49.932;8.308;2023-02-28T03:09:21;-2.60;99.90
12557;DHT22;6344;49.932;8.308;2023-02-28T03:11:49;-2.50;99.90
12557;DHT22;6344;49.932;8.308;2023-02-28T03:14:25;-2.40;99.90
12557;DHT22;6344;49.932;8.308;2023-02-28T03:17:06;-2.30;99.90
12557;DHT22;6344;49.932;8.308;2023-02-28T03:19:47;-2.20;99.90
12557;DHT22;6344;49.932;8.308;2023-02-28T03:22:28;-2.20;99.90
12557;DHT22;6344;49.932;8.308;2023-02-28T03:25:02;-2.10;99.90
12557;DHT22;6344;49.932;8.308;2023-02-28T03:27:36;-2.10;99.90
12557;DHT22;6344;49.932;8.308;2023-02-28T03:30:10;-2.10;99.90
12557;DHT22;6344;49.932;8.308;2023-02-28T03:32:38;-2.10;99.90
12557;DHT22;6344;49.932;8.308;2023-02-28T03:35:09;-2.10;99.90
12557;DHT22;6344;49.932;8.308;2023-02-28T03:37:42;-2.00;99.90
12557;DHT22;6344;49.932;8.308;2023-02-28T03:40:13;-2.00;99.90
12557;DHT22;6344;49.932;8.308;2023-02-28T03:42:44;-2.00;99.90
12557;DHT22;6344;49.932;8.308;2023-02-28T03:45:15;-2.10;99.90
12557;DHT22;6344;49.932;8.308;2023-02-28T03:47:49;-2.00;99.90
12557;DHT22;6344;49.932;8.308;2023-02-28T03:50:19;-2.00;99.90
12557;DHT22;6344;49.932;8.308;2023-02-28T03:52:52;-2.10;99.90
12557;DHT22;6344;49.932;8.308;2023-02-28T03:55:25;-2.00;99.90
12557;DHT22;6344;49.932;8.308;2023-02-28T03:57:59;-2.10;99.90
12557;DHT22;6344;49.932;8.308;2023-02-28T04:00:31;-2.20;99.90
12557;DHT22;6344;49.932;8.308;2023-02-28T04:02:58;-2.10;99.90
12557;DHT22;6344;49.932;8.308;2023-02-28T04:05:25;-2.10;99.90
12557;DHT22;6344;49.932;8.308;2023-02-28T04:07:54;-2.10;99.90
12557;DHT22;6344;49.932;8.308;2023-02-28T04:10:29;-2.10;99.90
12557;DHT22;6344;49.932;8.308;2023-02-28T04:12:56;-2.10;99.90
12557;DHT22;6344;49.932;8.308;2023-02-28T04:15:22;-2.10;99.90
12557;DHT22;6344;49.932;8.308;2023-02-28T04:17:50;-2.10;99.90
12557;DHT22;6344;49.932;8.308;2023-02-28T04:20:16;-2.10;99.90
12557;DHT22;6344;49.932;8.308;2023-02-28T04:22:43;-2.10;99.90
12557;DHT22;6344;49.932;8.308;2023-02-28T04:25:11;-2.10;99.90
12557;DHT22;6344;49.932;8.308;2023-02-28T04:27:38;-2.10;99.90
12557;DHT22;6344;49.932;8.308;2023-02-28T04:30:06;-2.20;99.90
12557;DHT22;6344;49.932;8.308;2023-02-28T04:32:32;-2.20;99.90
12557;DHT22;6344;49.932;8.308;2023-02-28T04:34:59;-2.20;99.90
12557;DHT22;6344;49.932;8.308;2023-02-28T04:37:26;-2.30;99.90
12557;DHT22;6344;49.932;8.308;2023-02-28T04:39:54;-2.30;99.90
12557;DHT22;6344;49.932;8.308;2023-02-28T04:42:22;-2.30;99.90
12557;DHT22;6344;49.932;8.308;2023-02-28T04:44:49;-2.30;99.90
12557;DHT22;6344;49.932;8.308;2023-02-28T04:47:15;-2.30;99.90
12557;DHT22;6344;49.932;8.308;2023-02-28T04:49:42;-2.30;99.90
12557;DHT22;6344;49.932;8.308;2023-02-28T04:52:09;-2.30;99.90
12557;DHT22;6344;49.932;8.308;2023-02-28T04:54:36;-2.30;99.90
12557;DHT22;6344;49.932;8.308;2023-02-28T04:57:04;-2.30;99.90
12557;DHT22;6344;49.932;8.308;2023-02-28T04:59:32;-2.30;99.90
12557;DHT22;6344;49.932;8.308;2023-02-28T05:01:59;-2.30;99.90
12557;DHT22;6344;49.932;8.308;2023-02-28T05:04:32;-2.20;99.90
12557;DHT22;6344;49.932;8.308;2023-02-28T05:07:00;-2.30;99.90
12557;DHT22;6344;49.932;8.308;2023-02-28T05:09:28;-2.20;99.90
12557;DHT22;6344;49.932;8.308;2023-02-28T05:11:55;-2.10;99.90
12557;DHT22;6344;49.932;8.308;2023-02-28T05:14:23;-2.10;99.90
12557;DHT22;6344;49.932;8.308;2023-02-28T05:16:51;-2.00;99.90
12557;DHT22;6344;49.932;8.308;2023-02-28T05:19:18;-2.00;99.90
12557;DHT22;6344;49.932;8.308;2023-02-28T05:21:51;-2.00;99.90
12557;DHT22;6344;49.932;8.308;2023-02-28T05:24:18;-2.00;99.90
12557;DHT22;6344;49.932;8.308;2023-02-28T05:26:49;-1.90;99.90
12557;DHT22;6344;49.932;8.308;2023-02-28T05:29:17;-1.90;99.90
12557;DHT22;6344;49.932;8.308;2023-02-28T05:31:44;-2.00;99.90
12557;DHT22;6344;49.932;8.308;2023-02-28T05:34:12;-2.00;99.90
12557;DHT22;6344;49.932;8.308;2023-02-28T05:36:41;-2.10;99.90
12557;DHT22;6344;49.932;8.308;2023-02-28T05:39:08;-2.10;99.90
12557;DHT22;6344;49.932;8.308;2023-02-28T05:41:39;-2.10;99.90
12557;DHT22;6344;49.932;8.308;2023-02-28T05:44:05;-2.10;99.90
12557;DHT22;6344;49.932;8.308;2023-02-28T05:46:32;-2.20;99.90
12557;DHT22;6344;49.932;8.308;2023-02-28T05:48:58;-2.20;99.90
12557;DHT22;6344;49.932;8.308;2023-02-28T05:51:27;-2.20;99.90
12557;DHT22;6344;49.932;8.308;2023-02-28T05:53:54;-2.30;99.90
12557;DHT22;6344;49.932;8.308;2023-02-28T05:56:22;-2.30;99.90
12557;DHT22;6344;49.932;8.308;2023-02-28T05:58:48;-2.30;99.90
12557;DHT22;6344;49.932;8.308;2023-02-28T06:01:32;-2.20;99.90
12557;DHT22;6344;49.932;8.308;2023-02-28T06:03:59;-2.30;99.90
12557;DHT22;6344;49.932;8.308;2023-02-28T06:06:27;-2.30;99.90
12557;DHT22;6344;49.932;8.308;2023-02-28T06:08:55;-2.40;99.90
12557;DHT22;6344;49.932;8.308;2023-02-28T06:11:21;-2.50;99.90
12557;DHT22;6344;49.932;8.308;2023-02-28T06:13:53;-2.50;99.90
12557;DHT22;6344;49.932;8.308;2023-02-28T06:16:20;-2.50;99.90
12557;DHT22;6344;49.932;8.308;2023-02-28T06:18:46;-2.50;99.90
12557;DHT22;6344;49.932;8.308;2023-02-28T06:21:13;-2.60;99.90
12557;DHT22;6344;49.932;8.308;2023-02-28T06:23:41;-2.50;99.90
12557;DHT22;6344;49.932;8.308;2023-02-28T06:26:08;-2.50;99.90
12557;DHT22;6344;49.932;8.308;2023-02-28T06:28:35;-2.50;99.90
12557;DHT22;6344;49.932;8.308;2023-02-28T06:31:06;-2.50;99.90
12557;DHT22;6344;49.932;8.308;2023-02-28T06:33:33;-2.50;99.90
12557;DHT22;6344;49.932;8.308;2023-02-28T06:35:59;-2.50;99.90
12557;DHT22;6344;49.932;8.308;2023-02-28T06:38:26;-2.60;99.90
12557;DHT22;6344;49.932;8.308;2023-02-28T06:40:55;-2.50;99.90
12557;DHT22;6344;49.932;8.308;2023-02-28T06:43:22;-2.30;99.90
12557;DHT22;6344;49.932;8.308;2023-02-28T06:45:49;-2.30;99.90
12557;DHT22;6344;49.932;8.308;2023-02-28T06:48:15;-2.30;99.90
12557;DHT22;6344;49.932;8.308;2023-02-28T06:50:43;-2.10;90.80
12557;DHT22;6344;49.932;8.308;2023-02-28T06:53:10;-2.00;70.10
12557;DHT22;6344;49.932;8.308;2023-02-28T06:55:37;-1.80;53.10
12557;DHT22;6344;49.932;8.308;2023-02-28T06:58:05;-1.70;39.30
12557;DHT22;6344;49.932;8.308;2023-02-28T07:00:40;-1.60;31.60
12557;DHT22;6344;49.932;8.308;2023-02-28T07:03:06;-1.60;31.60
12557;DHT22;6344;49.932;8.308;2023-02-28T07:05:34;-1.50;29.10
12557;DHT22;6344;49.932;8.308;2023-02-28T07:08:01;-1.40;28.80
12557;DHT22;6344;49.932;8.308;2023-02-28T07:10:28;-1.30;22.40
12557;DHT22;6344;49.932;8.308;2023-02-28T07:12:55;-1.20;9.00
12557;DHT22;6344;49.932;8.308;2023-02-28T07:15:23;-1.10;9.60
12557;DHT22;6344;49.932;8.308;2023-02-28T07:17:50;-1.10;7.80
12557;DHT22;6344;49.932;8.308;2023-02-28T07:20:17;-0.90;1.00
12557;DHT22;6344;49.932;8.308;2023-02-28T07:22:44;-0.80;1.00
12557;DHT22;6344;49.932;8.308;2023-02-28T07:25:10;-0.70;1.00
12557;DHT22;6344;49.932;8.308;2023-02-28T07:27:37;-0.60;1.00
12557;DHT22;6344;49.932;8.308;2023-02-28T07:30:04;-0.40;1.00
12557;DHT22;6344;49.932;8.308;2023-02-28T07:32:33;-0.10;1.00
12557;DHT22;6344;49.932;8.308;2023-02-28T07:35:03;0.40;1.00
12557;DHT22;6344;49.932;8.308;2023-02-28T07:37:30;0.80;1.00
12557;DHT22;6344;49.932;8.308;2023-02-28T07:40:02;0.80;1.00
12557;DHT22;6344;49.932;8.308;2023-02-28T07:42:29;1.00;1.00
12557;DHT22;6344;49.932;8.308;2023-02-28T07:44:56;1.20;1.00
12557;DHT22;6344;49.932;8.308;2023-02-28T07:47:22;1.30;1.00
12557;DHT22;6344;49.932;8.308;2023-02-28T07:49:50;1.40;99.90
12557;DHT22;6344;49.932;8.308;2023-02-28T07:52:18;1.50;99.90
12557;DHT22;6344;49.932;8.308;2023-02-28T07:54:44;1.70;99.90
12557;DHT22;6344;49.932;8.308;2023-02-28T07:57:11;1.80;99.90
12557;DHT22;6344;49.932;8.308;2023-02-28T07:59:38;1.90;99.90
12557;DHT22;6344;49.932;8.308;2023-02-28T08:02:05;1.80;99.90
12557;DHT22;6344;49.932;8.308;2023-02-28T08:04:32;1.90;99.90
12557;DHT22;6344;49.932;8.308;2023-02-28T08:07:00;2.00;99.90
12557;DHT22;6344;49.932;8.308;2023-02-28T08:09:27;1.80;99.90
12557;DHT22;6344;49.932;8.308;2023-02-28T08:11:55;1.40;99.90
12557;DHT22;6344;49.932;8.308;2023-02-28T08:14:22;1.30;99.90
12557;DHT22;6344;49.932;8.308;2023-02-28T08:16:49;1.10;99.90
12557;DHT22;6344;49.932;8.308;2023-02-28T08:19:15;1.00;99.90
12557;DHT22;6344;49.932;8.308;2023-02-28T08:21:42;1.00;99.90
12557;DHT22;6344;49.932;8.308;2023-02-28T08:24:10;1.00;99.90
12557;DHT22;6344;49.932;8.308;2023-02-28T08:26:37;1.00;99.90
12557;DHT22;6344;49.932;8.308;2023-02-28T08:29:03;1.10;99.90
12557;DHT22;6344;49.932;8.308;2023-02-28T08:31:30;1.20;99.90
12557;DHT22;6344;49.932;8.308;2023-02-28T08:33:57;1.30;99.90
12557;DHT22;6344;49.932;8.308;2023-02-28T08:36:25;1.40;99.90
12557;DHT22;6344;49.932;8.308;2023-02-28T08:38:53;1.60;99.90
12557;DHT22;6344;49.932;8.308;2023-02-28T08:41:21;1.70;99.90
12557;DHT22;6344;49.932;8.308;2023-02-28T08:43:48;1.70;99.90
12557;DHT22;6344;49.932;8.308;2023-02-28T08:46:15;2.00;99.90
12557;DHT22;6344;49.932;8.308;2023-02-28T08:48:41;2.20;99.90
12557;DHT22;6344;49.932;8.308;2023-02-28T08:51:10;2.40;99.90
12557;DHT22;6344;49.932;8.308;2023-02-28T08:53:38;2.60;99.90
12557;DHT22;6344;49.932;8.308;2023-02-28T08:56:08;2.70;99.90
12557;DHT22;6344;49.932;8.308;2023-02-28T08:58:36;2.70;99.90
12557;DHT22;6344;49.932;8.308;2023-02-28T09:01:07;2.90;99.90
12557;DHT22;6344;49.932;8.308;2023-02-28T09:03:34;3.40;99.90
12557;DHT22;6344;49.932;8.308;2023-02-28T09:06:01;3.50;97.50
12557;DHT22;6344;49.932;8.308;2023-02-28T09:08:29;3.60;95.50
12557;DHT22;6344;49.932;8.308;2023-02-28T09:10:56;3.50;92.60
12557;DHT22;6344;49.932;8.308;2023-02-28T09:13:24;3.70;91.90
12557;DHT22;6344;49.932;8.308;2023-02-28T09:15:52;3.70;90.00
12557;DHT22;6344;49.932;8.308;2023-02-28T09:18:19;3.60;85.20
12557;DHT22;6344;49.932;8.308;2023-02-28T09:20:46;3.80;80.70
12557;DHT22;6344;49.932;8.308;2023-02-28T09:23:12;4.00;80.00
12557;DHT22;6344;49.932;8.308;2023-02-28T09:25:46;3.90;70.90
12557;DHT22;6344;49.932;8.308;2023-02-28T09:28:13;4.10;72.00
12557;DHT22;6344;49.932;8.308;2023-02-28T09:30:43;4.10;67.20
12557;DHT22;6344;49.932;8.308;2023-02-28T09:33:12;4.40;66.40
12557;DHT22;6344;49.932;8.308;2023-02-28T09:35:38;4.30;61.30
12557;DHT22;6344;49.932;8.308;2023-02-28T09:38:05;4.60;59.20
12557;DHT22;6344;49.932;8.308;2023-02-28T09:40:36;4.60;56.50
12557;DHT22;6344;49.932;8.308;2023-02-28T09:43:04;4.50;54.60
12557;DHT22;6344;49.932;8.308;2023-02-28T09:45:35;4.80;51.50
12557;DHT22;6344;49.932;8.308;2023-02-28T09:48:04;4.70;49.00
12557;DHT22;6344;49.932;8.308;2023-02-28T09:50:37;5.60;52.20
12557;DHT22;6344;49.932;8.308;2023-02-28T09:53:13;5.40;45.60
12557;DHT22;6344;49.932;8.308;2023-02-28T09:55:45;4.90;40.50
12557;DHT22;6344;49.932;8.308;2023-02-28T09:58:19;5.30;43.00
12557;DHT22;6344;49.932;8.308;2023-02-28T10:00:53;5.00;37.10
12557;DHT22;6344;49.932;8.308;2023-02-28T10:03:31;4.90;37.10
12557;DHT22;6344;49.932;8.308;2023-02-28T10:06:06;4.80;33.70
12557;DHT22;6344;49.932;8.308;2023-02-28T10:08:36;4.90;32.40
12557;DHT22;6344;49.932;8.308;2023-02-28T10:11:09;5.70;38.70
12557;DHT22;6344;49.932;8.308;2023-02-28T10:13:41;5.70;36.90
12557;DHT22;6344;49.932;8.308;2023-02-28T10:16:15;5.90;36.40
12557;DHT22;6344;49.932;8.308;2023-02-28T10:18:46;6.20;35.10
12557;DHT22;6344;49.932;8.308;2023-02-28T10:21:20;5.10;26.00
12557;DHT22;6344;49.932;8.308;2023-02-28T10:23:48;4.50;23.00
12557;DHT22;6344;49.932;8.308;2023-02-28T10:26:17;4.00;18.80
12557;DHT22;6344;49.932;8.308;2023-02-28T10:28:44;4.10;19.80
12557;DHT22;6344;49.932;8.308;2023-02-28T10:31:15;3.90;19.20
12557;DHT22;6344;49.932;8.308;2023-02-28T10:33:44;4.00;19.80
12557;DHT22;6344;49.932;8.308;2023-02-28T10:36:14;4.20;21.00
12557;DHT22;6344;49.932;8.308;2023-02-28T10:38:45;4.00;19.60
12557;DHT22;6344;49.932;8.308;2023-02-28T10:41:26;4.10;19.40
12557;DHT22;6344;49.932;8.308;2023-02-28T10:44:13;4.30;21.90
12557;DHT22;6344;49.932;8.308;2023-02-28T10:46:40;4.30;19.80
12557;DHT22;6344;49.932;8.308;2023-02-28T10:49:14;4.40;19.90
12557;DHT22;6344;49.932;8.308;2023-02-28T10:51:41;4.40;19.60
12557;DHT22;6344;49.932;8.308;2023-02-28T10:54:18;4.40;18.00
12557;DHT22;6344;49.932;8.308;2023-02-28T10:56:45;4.40;17.80
12557;DHT22;6344;49.932;8.308;2023-02-28T10:59:27;4.00;13.30
12557;DHT22;6344;49.932;8.308;2023-02-28T11:01:55;4.00;14.00
12557;DHT22;6344;49.932;8.308;2023-02-28T11:04:33;4.30;16.00
12557;DHT22;6344;49.932;8.308;2023-02-28T11:07:02;4.90;17.90
12557;DHT22;6344;49.932;8.308;2023-02-28T11:09:34;5.40;20.90
12557;DHT22;6344;49.932;8.308;2023-02-28T11:12:02;6.00;19.90
12557;DHT22;6344;49.932;8.308;2023-02-28T11:14:33;6.50;19.50
12557;DHT22;6344;49.932;8.308;2023-02-28T11:17:13;7.10;22.00
12557;DHT22;6344;49.932;8.308;2023-02-28T11:19:45;7.00;18.60
12557;DHT22;6344;49.932;8.308;2023-02-28T11:22:18;5.90;9.20
12557;DHT22;6344;49.932;8.308;2023-02-28T11:24:49;5.40;5.90
12557;DHT22;6344;49.932;8.308;2023-02-28T11:27:43;4.80;2.50
12557;DHT22;6344;49.932;8.308;2023-02-28T11:30:29;4.90;2.60
12557;DHT22;6344;49.932;8.308;2023-02-28T11:32:56;4.40;1.00
12557;DHT22;6344;49.932;8.308;2023-02-28T11:35:26;4.40;1.00
12557;DHT22;6344;49.932;8.308;2023-02-28T11:37:53;4.30;1.00
12557;DHT22;6344;49.932;8.308;2023-02-28T11:40:30;5.20;3.80
12557;DHT22;6344;49.932;8.308;2023-02-28T11:43:06;6.10;6.90
12557;DHT22;6344;49.932;8.308;2023-02-28T11:45:49;6.40;7.50
12557;DHT22;6344;49.932;8.308;2023-02-28T11:48:23;5.80;1.60
12557;DHT22;6344;49.932;8.308;2023-02-28T11:51:04;5.30;1.00
12557;DHT22;6344;49.932;8.308;2023-02-28T11:53:49;4.90;1.00
12557;DHT22;6344;49.932;8.308;2023-02-28T11:56:22;5.40;1.00
12557;DHT22;6344;49.932;8.308;2023-02-28T11:58:55;5.50;1.00
12557;DHT22;6344;49.932;8.308;2023-02-28T12:01:37;6.00;1.00
12557;DHT22;6344;49.932;8.308;2023-02-28T12:04:17;6.10;1.00
12557;DHT22;6344;49.932;8.308;2023-02-28T12:06:52;6.90;3.30
12557;DHT22;6344;49.932;8.308;2023-02-28T12:09:40;7.00;2.70
12557;DHT22;6344;49.932;8.308;2023-02-28T12:12:23;6.20;1.00
12557;DHT22;6344;49.932;8.308;2023-02-28T12:15:22;6.00;1.00
12557;DHT22;6344;49.932;8.308;2023-02-28T12:18:05;6.00;3.40
12557;DHT22;6344;49.932;8.308;2023-02-28T12:20:40;6.80;1.00
12557;DHT22;6344;49.932;8.308;2023-02-28T12:23:21;7.20;1.00
12557;DHT22;6344;49.932;8.308;2023-02-28T12:25:56;7.20;1.00
12557;DHT22;6344;49.932;8.308;2023-02-28T12:28:32;7.70;1.00
12557;DHT22;6344;49.932;8.308;2023-02-28T12:31:03;7.60;1.00
12557;DHT22;6344;49.932;8.308;2023-02-28T12:33:34;7.50;1.00
12557;DHT22;6344;49.932;8.308;2023-02-28T12:36:07;7.00;1.00
12557;DHT22;6344;49.932;8.308;2023-02-28T12:38:41;7.50;1.00
12557;DHT22;6344;49.932;8.308;2023-02-28T12:41:13;7.60;1.00
12557;DHT22;6344;49.932;8.308;2023-02-28T12:43:44;7.90;1.00
12557;DHT22;6344;49.932;8.308;2023-02-28T12:46:16;7.80;1.00
12557;DHT22;6344;49.932;8.308;2023-02-28T12:48:47;8.20;1.00
12557;DHT22;6344;49.932;8.308;2023-02-28T12:51:15;7.90;1.00
12557;DHT22;6344;49.932;8.308;2023-02-28T12:53:52;7.90;1.00
12557;DHT22;6344;49.932;8.308;2023-02-28T12:56:29;7.80;1.00
12557;DHT22;6344;49.932;8.308;2023-02-28T12:59:02;8.30;1.00
12557;DHT22;6344;49.932;8.308;2023-02-28T13:05:01;7.90;1.00
12557;DHT22;6344;49.932;8.308;2023-02-28T13:08:11;8.00;1.00
12557;DHT22;6344;49.932;8.308;2023-02-28T13:10:43;8.40;1.00
12557;DHT22;6344;49.932;8.308;2023-02-28T13:13:16;8.10;1.00
12557;DHT22;6344;49.932;8.308;2023-02-28T13:15:59;8.00;1.00
12557;DHT22;6344;49.932;8.308;2023-02-28T13:18:30;7.50;1.00
12557;DHT22;6344;49.932;8.308;2023-02-28T13:20:57;8.00;1.00
12557;DHT22;6344;49.932;8.308;2023-02-28T13:29:30;8.00;1.00
12557;DHT22;6344;49.932;8.308;2023-02-28T13:35:35;7.80;1.00
12557;DHT22;6344;49.932;8.308;2023-02-28T13:41:42;8.70;1.00
12557;DHT22;6344;49.932;8.308;2023-02-28T13:44:10;8.80;1.00
12557;DHT22;6344;49.932;8.308;2023-02-28T13:49:43;8.70;1.00
12557;DHT22;6344;49.932;8.308;2023-02-28T13:52:16;8.40;1.00
12557;DHT22;6344;49.932;8.308;2023-02-28T13:55:00;8.20;1.00
12557;DHT22;6344;49.932;8.308;2023-02-28T13:57:37;8.00;1.00
12557;DHT22;6344;49.932;8.308;2023-02-28T14:00:20;7.90;1.00
12557;DHT22;6344;49.932;8.308;2023-02-28T14:03:05;8.20;99.90
12557;DHT22;6344;49.932;8.308;2023-02-28T14:09:24;8.30;1.00
12557;DHT22;6344;49.932;8.308;2023-02-28T14:11:52;8.20;1.00
12557;DHT22;6344;49.932;8.308;2023-02-28T14:14:53;8.40;1.00
12557;DHT22;6344;49.932;8.308;2023-02-28T14:17:20;8.00;1.00
12557;DHT22;6344;49.932;8.308;2023-02-28T14:19:47;8.10;1.00
12557;DHT22;6344;49.932;8.308;2023-02-28T14:22:29;7.80;1.00
12557;DHT22;6344;49.932;8.308;2023-02-28T14:25:13;7.90;1.00
12557;DHT22;6344;49.932;8.308;2023-02-28T14:27:48;8.10;1.00
12557;DHT22;6344;49.932;8.308;2023-02-28T14:33:35;7.70;1.00
12557;DHT22;6344;49.932;8.308;2023-02-28T14:36:11;7.30;1.00
12557;DHT22;6344;49.932;8.308;2023-02-28T14:38:42;7.30;1.00
12557;DHT22;6344;49.932;8.308;2023-02-28T14:41:21;7.30;1.00
12557;DHT22;6344;49.932;8.308;2023-02-28T14:43:51;7.30;1.00
12557;DHT22;6344;49.932;8.308;2023-02-28T14:46:19;7.20;1.00
12557;DHT22;6344;49.932;8.308;2023-02-28T14:48:46;7.20;1.00
12557;DHT22;6344;49.932;8.308;2023-02-28T14:51:18;7.20;1.00
12557;DHT22;6344;49.932;8.308;2023-02-28T14:53:48;7.30;1.00
12557;DHT22;6344;49.932;8.308;2023-02-28T14:56:25;7.30;1.00
12557;DHT22;6344;49.932;8.308;2023-02-28T14:58:56;7.30;1.00
12557;DHT22;6344;49.932;8.308;2023-02-28T15:01:24;7.70;1.00
12557;DHT22;6344;49.932;8.308;2023-02-28T15:03:58;7.40;1.00
12557;DHT22;6344;49.932;8.308;2023-02-28T15:06:26;7.20;1.00
12557;DHT22;6344;49.932;8.308;2023-02-28T15:09:14;7.10;1.00
12557;DHT22;6344;49.932;8.308;2023-02-28T15:11:46;7.10;1.00
12557;DHT22;6344;49.932;8.308;2023-02-28T15:14:18;7.20;1.00
12557;DHT22;6344;49.932;8.308;2023-02-28T15:16:49;7.10;1.00
12557;DHT22;6344;49.932;8.308;2023-02-28T15:19:21;7.00;1.00
12557;DHT22;6344;49.932;8.308;2023-02-28T15:21:51;6.90;1.00
12557;DHT22;6344;49.932;8.308;2023-02-28T15:24:23;7.20;1.00
12557;DHT22;6344;49.932;8.308;2023-02-28T15:26:58;7.40;1.00
12557;DHT22;6344;49.932;8.308;2023-02-28T15:29:27;7.40;1.00
12557;DHT22;6344;49.932;8.308;2023-02-28T15:31:59;6.80;1.00
12557;DHT22;6344;49.932;8.308;2023-02-28T15:34:34;6.80;1.00
12557;DHT22;6344;49.932;8.308;2023-02-28T15:37:01;7.00;1.00
12557;DHT22;6344;49.932;8.308;2023-02-28T15:39:29;7.20;1.00
12557;DHT22;6344;49.932;8.308;2023-02-28T15:42:12;7.00;1.00
12557;DHT22;6344;49.932;8.308;2023-02-28T15:44:44;7.00;1.00
12557;DHT22;6344;49.932;8.308;2023-02-28T15:47:17;7.40;1.00
12557;DHT22;6344;49.932;8.308;2023-02-28T15:49:48;7.40;1.00
12557;DHT22;6344;49.932;8.308;2023-02-28T15:52:17;7.10;1.00
12557;DHT22;6344;49.932;8.308;2023-02-28T15:54:45;7.10;1.00
12557;DHT22;6344;49.932;8.308;2023-02-28T15:57:17;7.20;1.00
12557;DHT22;6344;49.932;8.308;2023-02-28T15:59:51;7.40;1.00
12557;DHT22;6344;49.932;8.308;2023-02-28T16:02:21;7.00;1.00
12557;DHT22;6344;49.932;8.308;2023-02-28T16:04:59;6.60;1.00
12557;DHT22;6344;49.932;8.308;2023-02-28T16:07:26;6.30;1.00
12557;DHT22;6344;49.932;8.308;2023-02-28T16:09:53;6.10;1.00
12557;DHT22;6344;49.932;8.308;2023-02-28T16:12:25;6.20;1.00
12557;DHT22;6344;49.932;8.308;2023-02-28T16:14:53;6.00;1.00
12557;DHT22;6344;49.932;8.308;2023-02-28T16:17:24;5.60;1.00
12557;DHT22;6344;49.932;8.308;2023-02-28T16:19:51;5.20;1.00
12557;DHT22;6344;49.932;8.308;2023-02-28T16:22:18;5.10;1.00
12557;DHT22;6344;49.932;8.308;2023-02-28T16:24:44;5.10;1.00
12557;DHT22;6344;49.932;8.308;2023-02-28T16:27:17;4.90;1.00
12557;DHT22;6344;49.932;8.308;2023-02-28T16:29:46;4.70;1.00
12557;DHT22;6344;49.932;8.308;2023-02-28T16:32:14;4.70;1.00
12557;DHT22;6344;49.932;8.308;2023-02-28T16:34:42;4.60;1.00
12557;DHT22;6344;49.932;8.308;2023-02-28T16:37:12;4.50;1.00
12557;DHT22;6344;49.932;8.308;2023-02-28T16:39:39;4.50;1.00
12557;DHT22;6344;49.932;8.308;2023-02-28T16:42:06;4.40;1.00
12557;DHT22;6344;49.932;8.308;2023-02-28T16:44:34;4.30;1.00
12557;DHT22;6344;49.932;8.308;2023-02-28T16:47:03;4.30;1.00
12557;DHT22;6344;49.932;8.308;2023-02-28T16:49:31;4.20;1.00
12557;DHT22;6344;49.932;8.308;2023-02-28T16:51:57;4.10;1.00
12557;DHT22;6344;49.932;8.308;2023-02-28T16:54:24;4.00;1.00
12557;DHT22;6344;49.932;8.308;2023-02-28T16:56:51;3.90;1.00